Time;durP1;ratioP1;P1;durP2;ratioP2;P2;SDS_P1;SDS_P2;PMS_P1;PMS_P2;Temp;Humidity;BMP_temperature;BMP_pressure;BME280_temperature;BME280_humidity;BME280_pressure;Samples;Min_cycle;Max_cycle;Signal;HPM_P1;HPM_P2
2021/03/18 00:01:50;;;;;;;16.97;8.25;;;;;;;0.36;71.24;100750.36;1711141;80;25624;-85
2021/03/18 00:04:17;;;;;;;16.90;8.18;;;;;;;0.31;71.37;100747.23;1693440;82;25422;-85
2021/03/18 00:06:46;;;;;;;14.70;7.58;;;;;;;0.25;71.44;100744.55;1702121;81;25428;-85
2021/03/18 00:09:16;;;;;;;17.25;8.40;;;;;;;0.24;71.60;100750.59;1699271;81;25544;-85
2021/03/18 00:11:45;;;;;;;16.62;8.75;;;;;;;0.19;71.74;100748.31;1714517;80;25868;-85
2021/03/18 00:14:17;;;;;;;14.03;8.28;;;;;;;0.20;71.88;100740.95;1701201;80;25660;-85
2021/03/18 00:16:44;;;;;;;17.40;8.68;;;;;;;0.18;71.90;100745.35;1697133;81;25232;-85
2021/03/18 00:19:11;;;;;;;15.70;7.78;;;;;;;0.16;71.97;100736.92;1673383;81;25379;-86
2021/03/18 00:21:37;;;;;;;15.28;8.08;;;;;;;0.14;72.07;100742.61;1675268;82;25729;-85
2021/03/18 00:24:05;;;;;;;16.23;9.10;;;;;;;0.12;72.07;100742.33;1684305;81;25812;-86
2021/03/18 00:26:32;;;;;;;14.87;8.45;;;;;;;0.08;72.10;100740.83;1725089;81;25657;-86
2021/03/18 00:29:00;;;;;;;15.75;9.03;;;;;;;0.04;72.42;100738.08;1669676;83;25360;-86
2021/03/18 00:31:30;;;;;;;16.60;9.40;;;;;;;-0.01;72.34;100745.58;1688860;82;25389;-86
2021/03/18 00:33:57;;;;;;;15.18;8.15;;;;;;;-0.04;72.40;100736.77;1718878;80;25410;-86
2021/03/18 00:36:24;;;;;;;16.12;8.48;;;;;;;-0.02;72.57;100740.55;1727031;80;25834;-85
2021/03/18 00:38:51;;;;;;;14.93;7.85;;;;;;;-0.07;72.59;100734.38;1684489;82;25382;-85
2021/03/18 00:41:17;;;;;;;19.57;8.53;;;;;;;-0.11;72.68;100729.06;1682011;82;25564;-85
2021/03/18 00:43:45;;;;;;;12.93;7.20;;;;;;;-0.13;72.66;100731.34;1668286;83;25875;-86
2021/03/18 00:46:12;;;;;;;14.60;8.08;;;;;;;-0.16;72.96;100732.34;1678779;82;25788;-85
2021/03/18 00:48:40;;;;;;;15.32;8.53;;;;;;;-0.19;72.89;100727.38;1691647;81;26264;-85
2021/03/18 00:51:14;;;;;;;15.98;8.83;;;;;;;-0.21;73.02;100729.20;1698583;81;25552;-85
2021/03/18 00:53:45;;;;;;;17.62;8.75;;;;;;;-0.23;73.01;100730.56;1680479;81;25337;-85
2021/03/18 00:56:19;;;;;;;13.72;7.97;;;;;;;-0.21;73.05;100724.06;1685997;81;25489;-85
2021/03/18 00:58:47;;;;;;;16.67;8.35;;;;;;;-0.18;73.06;100724.35;1689344;82;25326;-85
2021/03/18 01:01:21;;;;;;;16.05;8.48;;;;;;;-0.16;73.03;100725.09;1698984;82;26132;-85
2021/03/18 01:03:48;;;;;;;17.05;9.40;;;;;;;-0.13;73.04;100724.92;1710430;81;25811;-85
2021/03/18 01:06:27;;;;;;;15.58;9.38;;;;;;;-0.12;73.08;100722.71;1678539;82;25521;-85
2021/03/18 01:08:57;;;;;;;15.25;8.13;;;;;;;-0.17;73.04;100722.14;1678914;82;25733;-86
2021/03/18 01:11:27;;;;;;;14.68;8.63;;;;;;;-0.20;73.03;100715.89;1690350;82;25951;-85
2021/03/18 01:14:02;;;;;;;13.20;7.67;;;;;;;-0.22;73.11;100718.53;1687114;82;26384;-85
2021/03/18 01:16:36;;;;;;;15.98;7.75;;;;;;;-0.23;73.18;100718.18;1675976;81;25331;-85
2021/03/18 01:19:06;;;;;;;16.80;7.40;;;;;;;-0.26;73.19;100716.61;1653605;83;25797;-86
2021/03/18 01:21:37;;;;;;;13.10;7.37;;;;;;;-0.30;73.28;100717.71;1682119;81;25482;-85
2021/03/18 01:24:06;;;;;;;13.20;7.25;;;;;;;-0.31;73.33;100714.75;1674963;81;25835;-86
2021/03/18 01:26:32;;;;;;;11.22;6.92;;;;;;;-0.32;73.40;100711.00;1672821;82;25878;-86
2021/03/18 01:28:59;;;;;;;11.20;6.20;;;;;;;-0.29;73.67;100713.40;1676109;82;25622;-86
2021/03/18 01:31:26;;;;;;;12.00;6.53;;;;;;;-0.31;73.61;100718.61;1680368;83;25603;-86
2021/03/18 01:33:52;;;;;;;14.03;7.60;;;;;;;-0.34;73.84;100713.64;1675511;82;25721;-86
2021/03/18 01:36:18;;;;;;;13.03;7.12;;;;;;;-0.34;73.77;100711.55;1665317;83;25474;-86
2021/03/18 01:38:46;;;;;;;12.03;7.62;;;;;;;-0.35;73.81;100712.00;1671594;82;25736;-86
2021/03/18 01:41:14;;;;;;;13.38;6.58;;;;;;;-0.33;73.92;100715.32;1682381;83;25740;-86
2021/03/18 01:43:42;;;;;;;13.50;7.20;;;;;;;-0.35;73.94;100715.86;1679181;81;25584;-85
2021/03/18 01:46:10;;;;;;;13.50;7.28;;;;;;;-0.36;74.00;100715.47;1662698;83;25611;-86
2021/03/18 01:48:36;;;;;;;12.47;6.55;;;;;;;-0.36;74.07;100717.21;1652094;84;25825;-85
2021/03/18 01:51:03;;;;;;;13.38;8.53;;;;;;;-0.36;74.20;100715.93;1688994;82;25814;-86
2021/03/18 01:53:30;;;;;;;12.70;6.47;;;;;;;-0.40;74.14;100717.84;1658703;83;25527;-86
2021/03/18 01:55:58;;;;;;;13.62;7.33;;;;;;;-0.40;74.22;100714.46;1662923;82;25668;-86
2021/03/18 01:58:26;;;;;;;14.28;7.72;;;;;;;-0.37;74.29;100711.72;1677160;81;25531;-86
2021/03/18 02:01:00;;;;;;;16.40;8.13;;;;;;;-0.31;74.32;100710.08;1669800;82;26101;-86
2021/03/18 02:03:27;;;;;;;12.35;6.47;;;;;;;-0.24;74.35;100710.11;1663089;83;25643;-86
2021/03/18 02:05:54;;;;;;;15.55;7.62;;;;;;;-0.20;74.24;100713.33;1665925;83;25321;-84
2021/03/18 02:08:21;;;;;;;16.25;7.75;;;;;;;-0.26;74.19;100717.89;1659872;83;25864;-86
2021/03/18 02:10:48;;;;;;;14.87;8.05;;;;;;;-0.27;74.30;100707.72;1664255;83;25618;-84
2021/03/18 02:13:16;;;;;;;13.13;7.72;;;;;;;-0.27;74.28;100715.43;1662920;83;25741;-84
2021/03/18 02:15:53;;;;;;;15.25;7.97;;;;;;;-0.31;74.24;100713.47;1691206;82;25760;-84
2021/03/18 02:18:37;;;;;;;15.88;7.87;;;;;;;-0.32;74.34;100716.97;1677165;82;25480;-85
2021/03/18 02:21:40;;;;;;;17.23;9.25;;;;;;;-0.38;74.40;100712.18;1699119;81;26045;-85
2021/03/18 02:24:32;;;;;;;17.67;7.95;;;;;;;-0.45;74.52;100712.14;1703578;81;25592;-85
2021/03/18 02:27:50;;;;;;;14.83;8.68;;;;;;;-0.45;74.73;100706.55;1717128;81;26103;-85
2021/03/18 02:30:40;;;;;;;20.35;9.88;;;;;;;-0.37;74.92;100703.55;1662988;83;26329;-84
2021/03/18 02:33:30;;;;;;;19.57;9.63;;;;;;;-0.41;74.80;100705.94;1681788;82;25863;-84
2021/03/18 02:36:09;;;;;;;16.73;8.48;;;;;;;-0.41;74.76;100706.37;1677798;82;25540;-85
2021/03/18 02:38:46;;;;;;;18.50;9.28;;;;;;;-0.47;74.76;100711.39;1690450;81;25462;-85
2021/03/18 02:41:19;;;;;;;20.30;10.15;;;;;;;-0.47;75.01;100711.39;1677052;81;25545;-84
2021/03/18 02:44:08;;;;;;;22.10;10.60;;;;;;;-0.46;75.01;100704.90;1709214;81;25716;-84
2021/03/18 02:46:38;;;;;;;17.83;10.73;;;;;;;-0.40;75.14;100705.47;1704947;81;25473;-84
2021/03/18 02:49:07;;;;;;;18.67;10.43;;;;;;;-0.41;75.01;100696.95;1691088;81;25494;-84
2021/03/18 02:51:36;;;;;;;17.67;10.88;;;;;;;-0.38;75.18;100699.34;1689806;81;25565;-85
2021/03/18 02:54:07;;;;;;;17.70;10.18;;;;;;;-0.32;75.19;100696.42;1669286;81;25411;-84
2021/03/18 02:56:37;;;;;;;13.78;7.87;;;;;;;-0.30;75.19;100693.31;1683846;81;26366;-84
2021/03/18 02:59:05;;;;;;;15.68;8.00;;;;;;;-0.32;75.05;100688.72;1668557;81;25712;-85
2021/03/18 03:01:31;;;;;;;12.80;7.45;;;;;;;-0.40;74.86;100697.77;1672725;82;25512;-84
2021/03/18 03:04:00;;;;;;;13.65;8.13;;;;;;;-0.49;74.86;100698.66;1682681;82;25368;-85
2021/03/18 03:06:29;;;;;;;17.75;10.30;;;;;;;-0.57;74.95;100705.95;1691503;81;25278;-85
2021/03/18 03:08:56;;;;;;;15.53;9.60;;;;;;;-0.64;75.19;100702.06;1664532;82;26472;-85
2021/03/18 03:11:25;;;;;;;17.10;9.10;;;;;;;-0.68;75.38;100709.58;1681383;82;25307;-85
2021/03/18 03:13:52;;;;;;;18.27;10.38;;;;;;;-0.70;75.57;100710.93;1694815;82;25211;-85
2021/03/18 03:16:21;;;;;;;14.05;9.08;;;;;;;-0.73;75.72;100714.95;1721519;80;26389;-85
2021/03/18 03:18:49;;;;;;;16.30;8.70;;;;;;;-0.73;75.89;100716.70;1719982;80;25558;-85
2021/03/18 03:21:17;;;;;;;19.85;8.15;;;;;;;-0.72;76.02;100718.34;1658947;82;25656;-86
2021/03/18 03:23:46;;;;;;;16.07;8.58;;;;;;;-0.70;76.23;100713.95;1687296;81;26222;-85
2021/03/18 03:26:16;;;;;;;17.25;8.23;;;;;;;-0.68;76.37;100715.99;1711138;81;25798;-85
2021/03/18 03:28:43;;;;;;;17.60;8.53;;;;;;;-0.68;76.50;100710.86;1720328;80;25217;-85
2021/03/18 03:31:09;;;;;;;15.83;9.20;;;;;;;-0.71;76.58;100713.56;1701542;81;25722;-85
2021/03/18 03:33:37;;;;;;;14.47;8.83;;;;;;;-0.72;76.83;100715.77;1707189;80;25851;-86
2021/03/18 03:36:04;;;;;;;14.20;9.23;;;;;;;-0.71;76.84;100708.44;1670975;82;25204;-86
2021/03/18 03:38:31;;;;;;;13.75;9.10;;;;;;;-0.70;76.98;100709.65;1689900;82;26093;-86
2021/03/18 03:40:57;;;;;;;14.10;9.08;;;;;;;-0.67;77.04;100706.91;1662464;82;25943;-86
2021/03/18 03:43:24;;;;;;;15.90;10.08;;;;;;;-0.67;77.08;100708.19;1704817;80;25962;-86
2021/03/18 03:45:53;;;;;;;17.12;8.58;;;;;;;-0.63;77.20;100710.58;1677277;83;25662;-85
2021/03/18 03:48:21;;;;;;;16.95;8.63;;;;;;;-0.64;78.03;100704.63;1679999;82;25760;-85
2021/03/18 03:50:49;;;;;;;14.55;9.10;;;;;;;-0.68;77.49;100710.86;1714839;80;25393;-85
2021/03/18 03:53:29;;;;;;;15.03;8.75;;;;;;;-0.68;77.78;100709.58;1723231;80;25262;-85
2021/03/18 03:56:07;;;;;;;15.58;7.95;;;;;;;-0.70;77.80;100703.69;1686834;80;25098;-85
2021/03/18 03:58:53;;;;;;;15.10;8.73;;;;;;;-0.73;78.04;100706.43;1715965;80;25713;-85
2021/03/18 04:01:34;;;;;;;16.37;9.80;;;;;;;-0.71;78.27;100709.28;1716464;80;25598;-85
2021/03/18 04:04:27;;;;;;;18.87;9.78;;;;;;;-0.71;78.43;100703.30;1711537;80;25335;-85
2021/03/18 04:06:58;;;;;;;16.30;8.70;;;;;;;-0.68;78.66;100709.58;1708208;80;25768;-85
2021/03/18 04:09:25;;;;;;;13.50;8.43;;;;;;;-0.62;78.92;100712.26;1728809;80;25433;-84
2021/03/18 04:11:52;;;;;;;14.85;8.98;;;;;;;-0.61;79.16;100716.47;1721230;79;25602;-84
2021/03/18 04:14:29;;;;;;;15.32;9.98;;;;;;;-0.57;79.21;100713.66;1730018;80;25535;-85
2021/03/18 04:17:00;;;;;;;15.18;10.10;;;;;;;-0.48;79.26;100707.18;1715544;80;25835;-86
2021/03/18 04:19:27;;;;;;;16.20;9.75;;;;;;;-0.44;79.21;100702.23;1703988;80;25666;-86
2021/03/18 04:21:54;;;;;;;15.15;8.95;;;;;;;-0.36;79.52;100701.80;1718535;79;25386;-86
2021/03/18 04:24:24;;;;;;;16.23;11.28;;;;;;;-0.35;79.45;100697.06;1719536;80;25726;-86
2021/03/18 04:26:53;;;;;;;15.90;9.43;;;;;;;-0.34;79.39;100699.52;1716851;80;31375;-86
2021/03/18 04:29:21;;;;;;;15.38;10.25;;;;;;;-0.32;79.58;100698.98;1724634;80;25814;-87
2021/03/18 04:31:48;;;;;;;15.50;10.90;;;;;;;-0.31;79.48;100701.09;1730329;79;25777;-87
2021/03/18 04:34:18;;;;;;;17.10;9.90;;;;;;;-0.26;79.53;100701.66;1692435;81;25735;-85
2021/03/18 04:36:45;;;;;;;17.45;10.20;;;;;;;-0.25;79.59;100706.72;1719283;80;26940;-85
2021/03/18 04:39:13;;;;;;;18.80;10.90;;;;;;;-0.24;79.67;100704.98;1723615;79;25459;-85
2021/03/18 04:41:41;;;;;;;16.30;10.93;;;;;;;-0.21;79.71;100707.38;1716207;80;25225;-85
2021/03/18 04:44:08;;;;;;;15.65;10.68;;;;;;;-0.19;79.64;100704.70;1717203;80;25894;-85
2021/03/18 04:46:36;;;;;;;14.40;9.88;;;;;;;-0.17;79.67;100704.98;1719341;80;26281;-85
2021/03/18 04:49:04;;;;;;;16.50;10.18;;;;;;;-0.15;79.66;100703.16;1714830;80;25656;-85
2021/03/18 04:51:31;;;;;;;15.30;10.08;;;;;;;-0.12;79.62;100699.59;1699431;81;25850;-85
2021/03/18 04:53:59;;;;;;;16.07;10.85;;;;;;;-0.10;79.60;100700.34;1730437;80;25810;-84
2021/03/18 04:56:27;;;;;;;15.65;10.70;;;;;;;-0.08;79.76;100701.08;1729265;80;25523;-83
2021/03/18 04:58:54;;;;;;;14.38;10.80;;;;;;;-0.08;79.73;100705.76;1723340;80;25722;-83
2021/03/18 05:01:23;;;;;;;15.65;10.53;;;;;;;-0.05;79.74;100700.44;1732948;80;25788;-84
2021/03/18 05:03:50;;;;;;;19.27;11.43;;;;;;;-0.01;79.75;100701.90;1704036;80;25462;-84
2021/03/18 05:06:23;;;;;;;19.25;12.10;;;;;;;0.02;79.73;100704.75;1700322;81;25950;-83
2021/03/18 05:08:50;;;;;;;19.27;11.33;;;;;;;0.06;79.72;100707.53;1713405;79;25483;-84
2021/03/18 05:11:17;;;;;;;14.30;10.10;;;;;;;0.10;79.74;100704.31;1722811;80;26263;-83
2021/03/18 05:13:45;;;;;;;14.33;10.03;;;;;;;0.11;79.77;100704.23;1679190;81;26069;-83
2021/03/18 05:16:14;;;;;;;16.95;11.50;;;;;;;0.11;79.78;100708.52;1729463;79;25751;-83
2021/03/18 05:18:41;;;;;;;17.65;11.12;;;;;;;0.10;79.74;100716.70;1714098;80;25554;-83
2021/03/18 05:21:07;;;;;;;16.55;11.80;;;;;;;0.08;79.98;100712.56;1652715;82;25435;-86
2021/03/18 05:23:35;;;;;;;18.23;11.57;;;;;;;0.04;79.96;100711.09;1660161;83;25456;-86
2021/03/18 05:26:01;;;;;;;14.93;10.13;;;;;;;0.07;79.90;100704.50;1713261;80;25617;-86
2021/03/18 05:28:28;;;;;;;17.10;11.30;;;;;;;0.09;80.09;100704.78;1728127;80;25210;-86
2021/03/18 05:30:54;;;;;;;16.07;10.93;;;;;;;0.06;79.99;100706.25;1706233;79;25547;-86
2021/03/18 05:33:21;;;;;;;16.93;10.08;;;;;;;0.08;79.96;100701.85;1720841;80;25382;-85
2021/03/18 05:35:47;;;;;;;15.75;10.70;;;;;;;0.13;80.07;100706.70;1704164;81;25069;-86
2021/03/18 05:38:15;;;;;;;17.67;11.55;;;;;;;0.12;79.99;100706.34;1717936;80;25590;-86
2021/03/18 05:40:46;;;;;;;17.50;11.12;;;;;;;0.11;79.98;100708.52;1697168;81;25837;-85
2021/03/18 05:43:13;;;;;;;17.25;11.50;;;;;;;0.12;80.08;100714.05;1716497;80;25950;-85
2021/03/18 05:45:39;;;;;;;21.20;11.15;;;;;;;0.14;80.06;100709.66;1719914;80;25896;-85
2021/03/18 05:48:06;;;;;;;16.40;10.30;;;;;;;0.14;80.11;100712.23;1679554;82;26063;-85
2021/03/18 05:50:34;;;;;;;14.47;10.63;;;;;;;0.14;80.14;100707.09;1697791;81;25723;-84
2021/03/18 05:53:03;;;;;;;15.53;9.33;;;;;;;0.14;80.29;100714.80;1723904;79;25570;-84
2021/03/18 05:55:30;;;;;;;18.55;10.15;;;;;;;0.13;80.49;100713.95;1728119;80;25780;-85
2021/03/18 05:57:57;;;;;;;14.33;10.38;;;;;;;0.09;80.44;100715.05;1710697;81;25755;-85
2021/03/18 06:00:25;;;;;;;17.15;11.28;;;;;;;0.10;80.60;100722.30;1704609;81;25642;-85
2021/03/18 06:02:51;;;;;;;16.87;10.98;;;;;;;0.12;80.71;100717.45;1709763;80;25622;-85
2021/03/18 06:05:19;;;;;;;18.17;10.80;;;;;;;0.12;80.74;100723.87;1680776;82;26632;-85
2021/03/18 06:07:48;;;;;;;14.40;9.23;;;;;;;0.12;80.81;100717.91;1723508;80;25272;-86
2021/03/18 06:10:19;;;;;;;15.28;9.40;;;;;;;0.11;81.10;100728.66;1710770;81;25765;-87
2021/03/18 06:12:53;;;;;;;15.88;10.75;;;;;;;0.14;80.92;100727.19;1723133;80;25333;-87
2021/03/18 06:15:21;;;;;;;14.00;9.50;;;;;;;0.16;80.87;100725.80;1729107;81;25743;-85
2021/03/18 06:17:48;;;;;;;14.18;9.68;;;;;;;0.18;80.89;100720.94;1733509;80;25358;-86
2021/03/18 06:20:25;;;;;;;15.38;9.90;;;;;;;0.21;80.92;100724.61;1744256;80;25257;-86
2021/03/18 06:22:52;;;;;;;15.30;10.30;;;;;;;0.27;80.89;100718.74;1745433;80;25599;-86
2021/03/18 06:25:30;;;;;;;13.93;8.65;;;;;;;0.34;80.92;100717.48;1746417;80;25566;-86
2021/03/18 06:28:23;;;;;;;13.18;8.45;;;;;;;0.40;80.92;100723.53;1747345;80;25630;-86
2021/03/18 06:31:15;;;;;;;15.48;9.03;;;;;;;0.38;80.84;100730.50;1744677;80;25620;-86
2021/03/18 06:33:45;;;;;;;14.43;9.78;;;;;;;0.38;80.84;100726.21;1743716;79;25652;-85
2021/03/18 06:36:22;;;;;;;15.40;9.90;;;;;;;0.40;80.95;100734.64;1741999;80;25240;-86
2021/03/18 06:39:10;;;;;;;14.78;9.90;;;;;;;0.44;80.94;100736.13;1740158;80;25531;-86
2021/03/18 06:41:43;;;;;;;13.80;9.73;;;;;;;0.50;80.90;100734.94;1738633;80;26662;-86
2021/03/18 06:44:29;;;;;;;14.13;8.65;;;;;;;0.49;80.98;100738.44;1739175;80;25572;-86
2021/03/18 06:47:08;;;;;;;13.45;8.60;;;;;;;0.49;80.88;100737.15;1740168;80;25234;-86
2021/03/18 06:49:35;;;;;;;15.15;9.28;;;;;;;0.50;80.96;100740.55;1741786;80;25681;-85
2021/03/18 06:52:05;;;;;;;13.95;9.58;;;;;;;0.49;80.89;100737.15;1714708;81;25774;-86
2021/03/18 06:54:43;;;;;;;13.83;9.05;;;;;;;0.50;80.91;100733.66;1733831;80;25771;-87
2021/03/18 06:57:11;;;;;;;12.58;8.35;;;;;;;0.56;80.94;100728.59;1726659;80;25288;-87
2021/03/18 06:59:41;;;;;;;14.95;8.10;;;;;;;0.54;80.75;100733.00;1679721;81;25388;-86
2021/03/18 07:02:16;;;;;;;13.03;8.50;;;;;;;0.54;80.76;100732.53;1719146;80;25809;-87
2021/03/18 07:04:52;;;;;;;13.08;8.43;;;;;;;0.59;80.95;100733.09;1723696;80;25712;-88
2021/03/18 07:07:22;;;;;;;15.38;9.48;;;;;;;0.68;80.82;100729.14;1730348;80;25630;-88
2021/03/18 07:09:52;;;;;;;12.58;8.55;;;;;;;0.78;80.80;100724.27;1730773;80;25792;-87
2021/03/18 07:12:25;;;;;;;11.38;7.78;;;;;;;0.86;80.43;100729.78;1732277;79;25728;-87
2021/03/18 07:15:01;;;;;;;10.20;7.08;;;;;;;0.95;80.51;100729.67;1733196;80;25497;-87
2021/03/18 07:17:34;;;;;;;13.08;8.33;;;;;;;1.01;79.78;100730.14;1731462;80;25396;-86
2021/03/18 07:20:20;;;;;;;11.90;7.10;;;;;;;1.01;79.67;100723.70;1737602;80;25802;-86
2021/03/18 07:22:52;;;;;;;11.83;8.03;;;;;;;1.05;79.44;100730.77;1728380;79;25588;-86
2021/03/18 07:25:26;;;;;;;13.15;7.37;;;;;;;1.11;79.41;100735.06;1718095;80;25497;-86
2021/03/18 07:27:57;;;;;;;11.90;7.67;;;;;;;1.15;79.20;100729.28;1709255;80;25798;-87
2021/03/18 07:30:33;;;;;;;9.10;6.80;;;;;;;1.17;78.89;100732.56;1707723;81;25395;-86
2021/03/18 07:33:00;;;;;;;13.98;7.75;;;;;;;1.17;78.38;100729.17;1698608;81;25644;-86
2021/03/18 07:35:28;;;;;;;11.88;7.80;;;;;;;1.19;78.79;100730.73;1710271;81;25378;-85
2021/03/18 07:37:55;;;;;;;13.88;7.17;;;;;;;1.26;78.85;100720.89;1711112;81;25629;-87
2021/03/18 07:40:23;;;;;;;10.28;5.75;;;;;;;1.27;78.35;100704.05;1730377;80;25555;-87
2021/03/18 07:42:51;;;;;;;9.48;6.87;;;;;;;1.27;78.35;100704.05;1725377;80;26369;-87
2021/03/18 07:45:20;;;;;;;10.28;5.35;;;;;;;1.35;77.05;100724.64;1725022;80;25611;-87
2021/03/18 07:47:47;;;;;;;10.72;6.55;;;;;;;1.24;75.74;100718.87;1732617;80;25308;-87
2021/03/18 07:50:18;;;;;;;9.95;6.87;;;;;;;1.21;76.51;100725.03;1705778;81;25369;-87
2021/03/18 07:52:47;;;;;;;10.93;5.97;;;;;;;1.24;76.50;100715.83;1719728;80;25338;-88
2021/03/18 07:55:19;;;;;;;9.00;5.50;;;;;;;1.27;76.35;100718.20;1718195;81;25693;-87
2021/03/18 07:57:51;;;;;;;9.73;5.03;;;;;;;1.27;75.37;100716.92;1729037;79;25635;-87
2021/03/18 08:00:22;;;;;;;10.40;4.70;;;;;;;1.28;74.55;100722.89;1729109;80;26007;-85
2021/03/18 08:02:50;;;;;;;8.98;5.28;;;;;;;1.28;73.86;100723.74;1724684;80;25812;-85
2021/03/18 08:05:37;;;;;;;8.05;5.75;;;;;;;1.36;74.11;100721.13;1712879;81;25696;-85
2021/03/18 08:08:05;;;;;;;9.00;5.70;;;;;;;1.38;72.79;100717.53;1693492;81;25835;-86
2021/03/18 08:10:36;;;;;;;7.45;4.22;;;;;;;1.39;72.44;100719.20;1698286;81;26033;-85
2021/03/18 08:13:04;;;;;;;7.40;3.85;;;;;;;1.40;70.28;100713.59;1704682;81;25501;-86
2021/03/18 08:15:42;;;;;;;8.18;4.37;;;;;;;1.43;69.85;100719.36;1703058;81;25691;-86
2021/03/18 08:18:22;;;;;;;6.42;3.70;;;;;;;1.47;70.33;100707.10;1696833;82;26154;-86
2021/03/18 08:20:57;;;;;;;7.20;3.62;;;;;;;1.47;70.33;100707.10;1699156;81;25729;-86
2021/03/18 08:23:31;;;;;;;5.97;3.60;;;;;;;1.55;69.21;100716.45;1711773;81;25619;-86
2021/03/18 08:26:12;;;;;;;4.35;3.02;;;;;;;1.55;67.31;100712.16;1688661;82;25728;-85
2021/03/18 08:28:59;;;;;;;;;;;;;;;1.53;68.25;100706.27;1697256;81;25370;-84
2021/03/18 08:31:36;;;;;;;6.03;3.75;;;;;;;1.55;68.58;100710.02;1715491;81;25826;-86
2021/03/18 08:34:03;;;;;;;6.70;3.67;;;;;;;1.60;67.54;100715.70;1695400;82;26275;-86
2021/03/18 08:36:39;;;;;;;6.83;3.67;;;;;;;1.60;67.54;100710.55;1705168;81;25715;-86
2021/03/18 08:39:13;;;;;;;5.12;3.92;;;;;;;1.58;67.22;100704.66;1712014;81;25516;-86
2021/03/18 08:41:47;;;;;;;6.83;4.35;;;;;;;1.57;68.25;100703.02;1680657;82;25355;-86
2021/03/18 08:44:34;;;;;;;9.85;4.55;;;;;;;1.63;68.61;100700.05;1698674;81;25468;-88
2021/03/18 08:47:05;;;;;;;7.60;4.72;;;;;;;1.68;66.91;100704.44;1684994;82;25499;-88
2021/03/18 08:49:39;;;;;;;6.20;3.90;;;;;;;1.76;68.46;100707.81;1696874;81;26239;-87
2021/03/18 08:52:10;;;;;;;5.87;3.85;;;;;;;1.82;67.30;100701.44;1700072;80;25686;-87
2021/03/18 08:54:49;;;;;;;;;;;;;;;1.87;67.65;100701.97;1737034;80;25221;-87
2021/03/18 08:57:14;;;;;;;5.80;3.22;;;;;;;2.04;65.41;100699.09;1725147;81;25374;-87
2021/03/18 08:59:46;;;;;;;7.05;4.03;;;;;;;2.04;65.41;100699.09;1722151;79;25213;-86
2021/03/18 09:02:15;;;;;;;6.80;4.00;;;;;;;2.03;65.23;100702.61;1732504;80;25812;-86
2021/03/18 09:04:44;;;;;;;6.92;3.80;;;;;;;2.03;65.23;100702.61;1721090;80;25312;-86
2021/03/18 09:07:20;;;;;;;5.75;3.60;;;;;;;1.97;66.08;100697.86;1728323;80;25707;-86
2021/03/18 09:10:08;;;;;;;5.17;3.33;;;;;;;1.93;65.57;100701.55;1710854;81;25642;-86
2021/03/18 09:12:50;;;;;;;7.22;3.72;;;;;;;1.87;65.43;100701.49;1713273;81;25256;-86
2021/03/18 09:15:34;;;;;;;9.43;5.05;;;;;;;1.84;65.53;100692.68;1706878;81;25779;-86
2021/03/18 09:18:15;;;;;;;5.53;3.95;;;;;;;1.83;66.78;100698.77;1704347;81;25541;-85
2021/03/18 09:20:46;;;;;;;8.05;4.10;;;;;;;1.86;67.02;100695.98;1700410;81;25718;-86
2021/03/18 09:23:19;;;;;;;6.28;4.00;;;;;;;1.89;66.68;100703.52;1737496;79;25796;-86
2021/03/18 09:25:50;;;;;;;8.63;4.35;;;;;;;1.90;66.40;100701.29;1715300;81;26123;-86
2021/03/18 09:28:17;;;;;;;10.55;3.80;;;;;;;1.90;66.40;100701.29;1710742;80;25717;-86
2021/03/18 09:30:48;;;;;;;7.92;4.30;;;;;;;1.86;65.92;100695.98;1685556;83;25842;-86
2021/03/18 09:33:28;;;;;;;5.85;3.70;;;;;;;1.87;66.11;100697.63;1738885;80;25567;-86
2021/03/18 09:35:59;;;;;;;6.20;3.47;;;;;;;1.90;66.74;100700.47;1686465;82;25455;-86
2021/03/18 09:38:30;;;;;;;5.12;3.47;;;;;;;1.90;65.72;100697.42;1701371;81;25734;-86
2021/03/18 09:40:59;;;;;;;5.12;3.42;;;;;;;1.88;66.35;100695.88;1701972;81;25743;-85
2021/03/18 09:43:28;;;;;;;5.35;3.33;;;;;;;1.89;66.73;100693.67;1695886;82;25628;-86
2021/03/18 09:46:02;;;;;;;6.35;3.80;;;;;;;1.89;66.73;100693.67;1683291;82;25699;-86
2021/03/18 09:48:35;;;;;;;7.67;4.60;;;;;;;1.91;66.94;100700.38;1699944;81;25625;-86
2021/03/18 09:51:16;;;;;;;6.28;3.95;;;;;;;2.00;67.13;100697.66;1702598;81;52227;-86
2021/03/18 09:53:46;;;;;;;5.70;3.47;;;;;;;2.02;66.43;100693.67;1673429;83;25701;-87
2021/03/18 09:56:15;;;;;;;12.80;4.10;;;;;;;1.98;66.43;100695.63;1660247;83;26234;-86
2021/03/18 09:58:43;;;;;;;7.70;4.67;;;;;;;2.00;66.74;100693.32;1692683;81;25821;-86
2021/03/18 10:01:14;;;;;;;6.05;4.03;;;;;;;2.04;67.11;100694.40;1686004;83;25523;-85
2021/03/18 10:04:04;;;;;;;8.68;4.40;;;;;;;2.08;67.18;100690.70;1698302;82;25626;-86
2021/03/18 10:06:37;;;;;;;6.13;4.50;;;;;;;2.18;67.35;100685.27;1702961;81;25695;-85
2021/03/18 10:09:28;;;;;;;8.35;4.30;;;;;;;2.25;66.86;100684.41;1699503;80;26193;-86
2021/03/18 10:12:00;;;;;;;7.12;3.60;;;;;;;2.28;66.48;100688.08;1713452;80;25637;-84
2021/03/18 10:14:45;;;;;;;6.37;3.52;;;;;;;2.26;65.54;100679.61;1709348;80;25841;-86
2021/03/18 10:17:18;;;;;;;6.28;4.20;;;;;;;2.26;65.54;100679.61;1717564;80;25719;-86
2021/03/18 10:19:58;;;;;;;7.75;4.25;;;;;;;2.21;64.27;100679.94;1718611;80;25678;-87
2021/03/18 10:22:36;;;;;;;;;;;;;;;2.21;65.06;100679.94;1701725;81;25727;-86
2021/03/18 10:25:12;;;;;;;4.53;3.12;;;;;;;2.22;65.33;100679.81;1668210;82;25413;-86
2021/03/18 10:27:43;;;;;;;6.72;3.85;;;;;;;2.25;64.88;100674.10;1667592;82;25801;-86
2021/03/18 10:30:22;;;;;;;8.05;4.47;;;;;;;2.26;65.15;100673.16;1699453;81;25827;-86
2021/03/18 10:33:25;;;;;;;7.60;4.53;;;;;;;2.23;65.35;100651.80;1699479;82;26453;-86
2021/03/18 10:35:59;;;;;;;5.90;3.60;;;;;;;2.39;65.32;100659.33;1673658;81;25374;-85
2021/03/18 10:38:36;;;;;;;6.30;4.30;;;;;;;2.42;64.86;100655.24;1666281;83;25506;-86
2021/03/18 10:41:12;;;;;;;5.45;3.80;;;;;;;2.42;64.86;100655.24;1672567;82;25458;-86
2021/03/18 10:43:42;;;;;;;8.55;4.33;;;;;;;2.50;63.64;100659.88;1691115;81;25685;-86
2021/03/18 10:46:12;;;;;;;6.10;4.28;;;;;;;2.46;64.23;100656.35;1692804;81;26595;-87
2021/03/18 10:48:39;;;;;;;;;;;;;;;2.47;64.22;100657.52;1702265;81;25426;-86
2021/03/18 10:51:14;;;;;;;5.40;3.60;;;;;;;2.44;64.38;100663.70;1688415;82;25400;-87
2021/03/18 10:53:44;;;;;;;9.43;4.37;;;;;;;2.40;63.97;100662.28;1697792;82;25767;-86
2021/03/18 10:56:17;;;;;;;6.55;4.40;;;;;;;2.29;64.50;100658.77;1684112;81;33184;-86
2021/03/18 10:58:45;;;;;;;9.38;4.30;;;;;;;2.25;64.81;100662.50;1692459;81;25620;-86
2021/03/18 11:01:16;;;;;;;6.00;4.75;;;;;;;2.25;64.81;100662.50;1719190;80;25486;-86
2021/03/18 11:03:44;;;;;;;10.00;6.20;;;;;;;2.09;65.43;100641.60;1706282;80;25775;-86
2021/03/18 11:06:20;;;;;;;8.33;5.78;;;;;;;2.09;65.43;100641.60;1708503;81;25113;-86
2021/03/18 11:08:51;;;;;;;6.50;4.28;;;;;;;2.23;65.67;100656.14;1704915;80;25827;-86
2021/03/18 11:11:24;;;;;;;8.03;4.97;;;;;;;2.21;65.62;100652.86;1675501;83;26410;-87
2021/03/18 11:14:05;;;;;;;9.03;6.05;;;;;;;2.21;66.02;100652.39;1687171;81;25811;-87
2021/03/18 11:16:32;;;;;;;11.63;5.75;;;;;;;2.26;65.94;100657.22;1691814;81;25768;-87
2021/03/18 11:19:01;;;;;;;8.00;4.55;;;;;;;2.28;65.92;100647.63;1676041;82;25424;-87
2021/03/18 11:21:37;;;;;;;12.43;6.55;;;;;;;2.26;65.60;100644.33;1701223;81;25570;-86
2021/03/18 11:24:11;;;;;;;11.90;6.90;;;;;;;2.26;66.29;100647.37;1668918;83;25682;-87
2021/03/18 11:26:44;;;;;;;11.03;6.72;;;;;;;2.29;66.63;100639.42;1677106;81;25436;-87
2021/03/18 11:29:14;;;;;;;10.15;7.03;;;;;;;2.35;66.68;100642.90;1656526;83;25349;-87
2021/03/18 11:31:45;;;;;;;13.78;8.15;;;;;;;2.36;66.86;100635.51;1658621;83;32543;-87
2021/03/18 11:34:18;;;;;;;16.02;8.28;;;;;;;2.38;66.87;100638.81;1700459;81;25365;-87
2021/03/18 11:36:47;;;;;;;11.83;7.85;;;;;;;2.40;67.20;100636.93;1730989;80;26750;-87
2021/03/18 11:39:16;;;;;;;11.97;7.47;;;;;;;2.38;67.10;100637.52;1713873;80;25467;-86
2021/03/18 11:41:42;;;;;;;12.40;7.72;;;;;;;2.33;67.11;100637.02;1713265;80;25611;-88
2021/03/18 11:44:08;;;;;;;11.60;7.50;;;;;;;2.35;67.20;100628.71;1720100;80;26362;-87
2021/03/18 11:46:35;;;;;;;12.23;6.28;;;;;;;2.29;66.78;100626.09;1705018;78;25311;-86